createdAt,value
2022-11-26T00:00:25.594Z,2.15
2022-11-26T00:03:30.138Z,2.13
2022-11-26T00:06:42.857Z,2.25
2022-11-26T00:09:50.877Z,2.33
2022-11-26T00:12:56.793Z,1.65
2022-11-26T00:16:01.279Z,1.83
2022-11-26T00:19:05.819Z,2.03
2022-11-26T00:22:26.381Z,1.85
2022-11-26T00:25:46.717Z,1.70
2022-11-26T00:28:56.045Z,2.30
2022-11-26T00:32:00.745Z,1.73
2022-11-26T00:35:05.827Z,2.08
2022-11-26T00:38:18.036Z,1.88
2022-11-26T00:41:28.967Z,1.83
2022-11-26T00:44:33.668Z,1.80
2022-11-26T00:47:38.457Z,2.30
2022-11-26T00:50:49.506Z,2.50
2022-11-26T00:53:56.455Z,2.13
2022-11-26T00:57:01.256Z,1.90
2022-11-26T01:00:22.290Z,2.03
2022-11-26T01:03:27.112Z,1.73
2022-11-26T01:06:39.721Z,1.75
2022-11-26T01:09:46.205Z,1.90
2022-11-26T01:12:52.390Z,2.38
2022-11-26T01:15:59.906Z,2.30
2022-11-26T01:19:04.287Z,2.00
2022-11-26T01:22:21.008Z,2.40
2022-11-26T01:25:27.322Z,2.03
2022-11-26T01:28:32.094Z,2.38
2022-11-26T01:31:36.709Z,2.00
2022-11-26T01:34:41.527Z,2.13
2022-11-26T01:37:46.745Z,2.30
2022-11-26T01:41:32.351Z,2.03
2022-11-26T01:44:37.977Z,2.35
2022-11-26T01:47:43.334Z,2.38
2022-11-26T01:50:53.261Z,2.05
2022-11-26T01:54:00.846Z,2.33
2022-11-26T01:57:29.647Z,2.88
2022-11-26T02:00:34.172Z,2.10
2022-11-26T02:03:48.438Z,2.20
2022-11-26T02:06:55.715Z,2.47
2022-11-26T02:10:00.863Z,1.75
2022-11-26T02:13:06.130Z,2.40
2022-11-26T02:16:24.357Z,2.70
2022-11-26T02:20:03.252Z,2.00
2022-11-26T02:23:51.324Z,2.15
2022-11-26T02:27:27.077Z,2.63
2022-11-26T02:30:49.046Z,1.90
2022-11-26T02:34:13.634Z,2.28
2022-11-26T02:37:52.819Z,2.25
2022-11-26T02:40:57.657Z,2.45
2022-11-26T02:44:02.133Z,2.15
2022-11-26T02:47:12.338Z,1.83
2022-11-26T02:50:32.519Z,2.40
2022-11-26T02:53:38.861Z,2.22
2022-11-26T02:56:43.714Z,2.20
2022-11-26T02:59:48.334Z,2.28
2022-11-26T03:03:23.032Z,2.38
2022-11-26T03:06:32.434Z,2.08
2022-11-26T03:09:58.932Z,1.90
2022-11-26T03:13:03.543Z,2.22
2022-11-26T03:16:08.131Z,2.30
2022-11-26T03:19:12.877Z,2.28
2022-11-26T03:22:17.519Z,2.45
2022-11-26T03:25:21.877Z,2.55
2022-11-26T03:28:26.361Z,2.50
2022-11-26T03:31:31.093Z,2.53
2022-11-26T03:34:35.873Z,2.40
2022-11-26T03:37:40.899Z,2.80
2022-11-26T03:40:45.916Z,2.38
2022-11-26T03:43:50.419Z,2.40
2022-11-26T03:46:54.837Z,2.28
2022-11-26T03:49:59.711Z,2.53
2022-11-26T03:53:04.571Z,2.58
2022-11-26T03:56:08.934Z,2.33
2022-11-26T03:59:13.419Z,2.38
2022-11-26T04:02:17.602Z,2.40
2022-11-26T04:05:21.865Z,2.58
2022-11-26T04:08:26.336Z,2.38
2022-11-26T04:11:30.859Z,2.30
2022-11-26T04:14:35.387Z,2.40
2022-11-26T04:17:40.215Z,2.15
2022-11-26T04:20:47.605Z,2.50
2022-11-26T04:23:54.521Z,2.47
2022-11-26T04:26:58.987Z,2.30
2022-11-26T04:30:05.181Z,2.40
2022-11-26T04:33:10.254Z,2.22
2022-11-26T04:36:14.805Z,2.15
2022-11-26T04:39:19.445Z,2.05
2022-11-26T04:42:23.759Z,2.00
2022-11-26T04:45:34.445Z,2.65
2022-11-26T04:48:47.444Z,2.42
2022-11-26T04:51:54.277Z,2.22
2022-11-26T04:54:58.704Z,2.25
2022-11-26T04:58:03.758Z,2.33
2022-11-26T05:01:08.253Z,2.40
2022-11-26T05:04:13.029Z,2.15
2022-11-26T05:07:17.951Z,2.65
2022-11-26T05:10:22.665Z,2.15
2022-11-26T05:13:27.746Z,2.50
2022-11-26T05:16:32.364Z,2.53
2022-11-26T05:19:36.544Z,2.45
2022-11-26T05:22:42.885Z,2.50
2022-11-26T05:25:47.957Z,2.67
2022-11-26T05:28:52.619Z,2.90
2022-11-26T05:31:57.271Z,2.60
2022-11-26T05:35:02.000Z,2.70
2022-11-26T05:38:06.612Z,3.10
2022-11-26T05:41:11.279Z,2.83
2022-11-26T05:44:15.679Z,2.60
2022-11-26T05:47:20.250Z,2.80
2022-11-26T05:50:24.612Z,2.78
2022-11-26T05:53:31.006Z,2.83
2022-11-26T05:56:35.427Z,2.15
2022-11-26T05:59:39.945Z,2.60
2022-11-26T06:02:44.923Z,2.60
2022-11-26T06:05:49.772Z,2.45
2022-11-26T06:08:54.564Z,2.38
2022-11-26T06:11:59.312Z,2.67
2022-11-26T06:15:04.540Z,2.42
2022-11-26T06:18:08.890Z,2.45
2022-11-26T06:21:13.456Z,2.80
2022-11-26T06:24:18.339Z,2.65
2022-11-26T06:30:26.881Z,1.98
2022-11-26T06:33:31.994Z,2.75
2022-11-26T06:36:36.774Z,2.53
2022-11-26T06:39:41.604Z,2.50
2022-11-26T06:42:53.542Z,3.15
2022-11-26T06:46:07.649Z,2.90
2022-11-26T06:49:12.548Z,2.45
2022-11-26T06:52:17.009Z,2.60
2022-11-26T06:55:22.351Z,3.03
2022-11-26T06:58:27.284Z,3.50
2022-11-26T07:01:32.008Z,2.33
2022-11-26T07:04:36.470Z,2.00
2022-11-26T07:07:41.064Z,2.95
2022-11-26T07:10:49.015Z,2.75
2022-11-26T07:13:54.520Z,2.75
2022-11-26T07:16:59.173Z,2.55
2022-11-26T07:20:05.315Z,2.40
2022-11-26T07:23:09.795Z,2.10
2022-11-26T07:26:15.595Z,2.45
2022-11-26T07:29:19.871Z,2.63
2022-11-26T07:32:24.263Z,2.50
2022-11-26T07:35:29.155Z,2.40
2022-11-26T07:38:34.777Z,2.40
2022-11-26T07:41:39.748Z,2.38
2022-11-26T07:44:44.438Z,1.98
2022-11-26T07:47:49.233Z,2.55
2022-11-26T07:50:53.438Z,2.90
2022-11-26T07:54:02.822Z,2.03
2022-11-26T07:57:07.239Z,2.53
2022-11-26T08:00:12.246Z,2.65
2022-11-26T08:03:17.164Z,2.78
2022-11-26T08:06:26.202Z,2.47
2022-11-26T08:09:31.053Z,2.47
2022-11-26T08:12:35.507Z,2.35
2022-11-26T08:15:39.934Z,2.90
2022-11-26T08:18:44.638Z,2.63
2022-11-26T08:21:49.386Z,2.15
2022-11-26T08:24:54.017Z,1.83
2022-11-26T08:27:59.034Z,2.50
2022-11-26T08:31:09.781Z,2.35
2022-11-26T08:34:16.115Z,2.20
2022-11-26T08:37:20.905Z,2.83
2022-11-26T08:40:25.462Z,2.40
2022-11-26T08:43:51.389Z,2.25
2022-11-26T08:53:03.428Z,2.05
2022-11-26T08:56:11.235Z,1.80
2022-11-26T08:59:17.494Z,1.80
2022-11-26T09:02:23.404Z,1.80
2022-11-26T09:05:28.089Z,1.77
2022-11-26T09:08:44.827Z,2.40
2022-11-26T09:11:56.417Z,1.95
2022-11-26T09:15:01.126Z,2.20
2022-11-26T09:18:05.815Z,2.53
2022-11-26T09:21:10.467Z,2.40
2022-11-26T09:24:16.666Z,2.05
2022-11-26T09:27:21.627Z,3.05
2022-11-26T09:30:26.053Z,3.22
2022-11-26T09:33:31.826Z,2.35
2022-11-26T09:36:36.573Z,2.78
2022-11-26T09:39:41.323Z,2.85
2022-11-26T09:43:11.975Z,2.58
2022-11-26T09:46:21.110Z,2.95
2022-11-26T09:49:28.431Z,3.00
2022-11-26T09:52:52.253Z,3.03
2022-11-26T09:55:56.768Z,2.80
2022-11-26T09:59:05.595Z,3.05
2022-11-26T10:02:12.908Z,2.83
2022-11-26T10:05:21.271Z,2.78
2022-11-26T10:08:49.804Z,3.67
2022-11-26T10:13:17.444Z,3.53
2022-11-26T10:16:29.582Z,3.22
2022-11-26T10:19:53.722Z,4.00
2022-11-26T10:23:13.730Z,3.42
2022-11-26T10:26:35.238Z,2.92
2022-11-26T10:29:49.865Z,3.58
2022-11-26T10:32:58.386Z,3.83
2022-11-26T10:36:07.641Z,3.42
2022-11-26T10:39:20.435Z,3.88
2022-11-26T10:42:25.478Z,3.58
2022-11-26T10:45:40.831Z,3.47
2022-11-26T10:48:45.477Z,3.25
2022-11-26T10:51:55.105Z,3.45
2022-11-26T10:55:19.580Z,3.88
2022-11-26T10:58:30.945Z,3.35
2022-11-26T11:01:40.553Z,3.85
2022-11-26T11:04:49.664Z,4.00
2022-11-26T11:07:55.171Z,4.95
2022-11-26T11:11:02.786Z,3.55
2022-11-26T11:14:28.721Z,4.28
2022-11-26T11:17:38.042Z,4.15
2022-11-26T11:20:59.025Z,3.50
2022-11-26T11:24:17.073Z,4.00
2022-11-26T11:27:36.829Z,2.90
2022-11-26T11:30:44.276Z,3.30
2022-11-26T11:33:51.067Z,3.50
2022-11-26T11:37:02.467Z,3.47
2022-11-26T11:40:17.484Z,3.35
2022-11-26T11:43:25.032Z,2.55
2022-11-26T11:47:00.674Z,3.88
2022-11-26T11:50:36.219Z,2.60
2022-11-26T11:54:19.221Z,2.88
2022-11-26T11:58:17.965Z,2.55
2022-11-26T12:01:47.512Z,1.90
2022-11-26T12:05:38.669Z,2.40
2022-11-26T12:09:01.650Z,2.35
2022-11-26T12:12:31.614Z,2.53
2022-11-26T12:15:51.804Z,2.22
2022-11-26T12:19:12.679Z,2.65
2022-11-26T12:22:44.507Z,2.40
2022-11-26T12:25:58.034Z,2.38
2022-11-26T12:29:36.504Z,2.80
2022-11-26T12:32:56.684Z,2.45
2022-11-26T12:36:13.837Z,2.10
2022-11-26T12:39:53.395Z,2.00
2022-11-26T12:43:06.562Z,3.33
2022-11-26T12:46:55.565Z,2.00
2022-11-26T12:50:23.146Z,2.65
2022-11-26T12:53:42.122Z,2.35
2022-11-26T12:57:00.042Z,2.55
2022-11-26T13:00:30.156Z,2.38
2022-11-26T13:03:37.364Z,1.95
2022-11-26T13:07:15.157Z,2.88
2022-11-26T13:10:41.404Z,2.83
2022-11-26T13:14:17.329Z,2.17
2022-11-26T13:17:44.832Z,2.13
2022-11-26T13:21:40.010Z,2.55
2022-11-26T13:25:15.893Z,1.83
2022-11-26T13:29:17.520Z,2.55
2022-11-26T13:33:29.780Z,2.42
2022-11-26T13:37:04.363Z,2.08
2022-11-26T13:40:33.885Z,1.85
2022-11-26T13:44:21.783Z,1.67
2022-11-26T13:47:44.808Z,2.15
2022-11-26T13:51:21.403Z,2.15
2022-11-26T13:54:39.715Z,2.10
2022-11-26T13:57:49.812Z,2.53
2022-11-26T14:00:54.520Z,2.25
2022-11-26T14:04:00.092Z,1.77
2022-11-26T14:07:04.649Z,1.90
2022-11-26T14:10:34.631Z,2.10
2022-11-26T14:13:39.473Z,2.13
2022-11-26T14:17:02.535Z,1.90
2022-11-26T14:20:08.214Z,1.95
2022-11-26T14:23:40.715Z,2.10
2022-11-26T14:26:45.654Z,1.60
2022-11-26T14:30:15.480Z,1.98
2022-11-26T14:33:27.381Z,1.55
2022-11-26T14:36:32.484Z,1.80
2022-11-26T14:39:36.879Z,1.77
2022-11-26T14:42:41.598Z,1.80
2022-11-26T14:46:05.946Z,1.60
2022-11-26T14:49:29.573Z,1.88
2022-11-26T14:52:41.126Z,1.63
2022-11-26T14:55:46.168Z,1.88
2022-11-26T14:59:01.948Z,1.58
2022-11-26T15:02:22.503Z,1.45
2022-11-26T15:05:30.154Z,2.03
2022-11-26T15:08:34.721Z,1.40
2022-11-26T15:11:56.378Z,1.35
2022-11-26T15:15:03.384Z,1.17
2022-11-26T15:18:15.225Z,1.63
2022-11-26T15:21:24.224Z,1.27
2022-11-26T15:24:28.974Z,1.20
2022-11-26T15:27:55.725Z,1.40
2022-11-26T15:31:08.471Z,1.38
2022-11-26T15:34:13.884Z,1.15
2022-11-26T15:37:18.488Z,1.20
2022-11-26T15:40:33.547Z,1.60
2022-11-26T15:43:52.304Z,1.73
2022-11-26T15:46:58.449Z,1.70
2022-11-26T15:50:03.203Z,2.00
2022-11-26T15:53:17.158Z,1.88
2022-11-26T15:56:28.743Z,1.85
2022-11-26T15:59:48.395Z,2.13
2022-11-26T16:02:53.539Z,1.65
2022-11-26T16:05:58.297Z,1.77
2022-11-26T16:09:09.116Z,2.42
2022-11-26T16:12:40.589Z,2.00
2022-11-26T16:15:51.744Z,1.98
2022-11-26T16:19:05.462Z,1.80
2022-11-26T16:22:16.475Z,1.92
2022-11-26T16:25:34.566Z,2.22
2022-11-26T16:28:39.517Z,2.03
2022-11-26T16:31:44.306Z,2.20
2022-11-26T16:34:49.143Z,2.20
2022-11-26T16:37:53.891Z,2.53
2022-11-26T16:40:58.755Z,2.20
2022-11-26T16:44:03.447Z,2.90
2022-11-26T16:47:31.466Z,2.45
2022-11-26T16:50:36.121Z,2.38
2022-11-26T16:53:40.980Z,2.47
2022-11-26T16:56:45.677Z,2.67
2022-11-26T17:00:00.769Z,2.67
2022-11-26T17:03:07.193Z,2.90
2022-11-26T17:06:24.120Z,2.33
2022-11-26T17:09:29.008Z,2.95
2022-11-26T17:12:35.098Z,2.10
2022-11-26T17:15:40.509Z,2.72
2022-11-26T17:18:45.600Z,2.90
2022-11-26T17:21:50.364Z,2.38
2022-11-26T17:24:54.891Z,2.67
2022-11-26T17:27:59.903Z,2.58
2022-11-26T17:31:04.736Z,2.30
2022-11-26T17:34:09.438Z,3.35
2022-11-26T17:37:25.490Z,2.22
2022-11-26T17:40:30.184Z,2.50
2022-11-26T17:43:35.090Z,2.53
2022-11-26T17:47:01.399Z,3.10
2022-11-26T17:50:29.345Z,2.83
2022-11-26T17:53:34.372Z,2.47
2022-11-26T17:56:39.387Z,2.90
2022-11-26T17:59:45.318Z,2.75
2022-11-26T18:02:51.453Z,2.10
2022-11-26T18:05:56.645Z,2.95
2022-11-26T18:09:01.641Z,2.05
2022-11-26T18:12:09.611Z,1.95
2022-11-26T18:15:26.906Z,2.60
2022-11-26T18:18:31.538Z,2.08
2022-11-26T18:21:37.475Z,2.40
2022-11-26T18:24:43.382Z,2.30
2022-11-26T18:27:48.122Z,2.22
2022-11-26T18:30:58.765Z,2.25
2022-11-26T18:34:04.071Z,2.50
2022-11-26T18:37:10.326Z,2.28
2022-11-26T18:40:17.513Z,1.90
2022-11-26T18:43:22.266Z,2.30
2022-11-26T18:46:27.684Z,2.17
2022-11-26T18:49:33.209Z,2.30
2022-11-26T18:52:37.792Z,2.63
2022-11-26T18:55:42.959Z,2.53
2022-11-26T18:58:47.694Z,2.13
2022-11-26T19:01:52.662Z,2.03
2022-11-26T19:04:57.125Z,2.47
2022-11-26T19:08:02.118Z,2.45
2022-11-26T19:11:12.646Z,2.25
2022-11-26T19:14:17.456Z,2.30
2022-11-26T19:17:22.242Z,2.08
2022-11-26T19:20:26.673Z,2.00
2022-11-26T19:23:37.560Z,1.85
2022-11-26T19:26:42.482Z,2.00
2022-11-26T19:29:46.766Z,2.13
2022-11-26T19:32:51.594Z,2.20
2022-11-26T19:35:57.045Z,2.50
2022-11-26T19:39:03.267Z,2.40
2022-11-26T19:42:08.606Z,2.38
2022-11-26T19:45:14.413Z,2.50
2022-11-26T19:48:18.845Z,2.05
2022-11-26T19:51:26.374Z,2.28
2022-11-26T19:54:31.291Z,2.03
2022-11-26T19:57:35.748Z,2.15
2022-11-26T20:00:42.838Z,1.88
2022-11-26T20:03:47.556Z,1.67
2022-11-26T20:06:54.184Z,2.10
2022-11-26T20:09:58.969Z,2.33
2022-11-26T20:13:05.687Z,2.42
2022-11-26T20:16:23.328Z,2.08
2022-11-26T20:19:28.637Z,1.90
2022-11-26T20:22:36.847Z,1.98
2022-11-26T20:25:42.011Z,1.90
2022-11-26T20:28:48.735Z,2.60
2022-11-26T20:31:54.529Z,2.05
2022-11-26T20:34:59.089Z,1.92
2022-11-26T20:38:03.982Z,1.83
2022-11-26T20:41:16.236Z,2.08
2022-11-26T20:44:23.293Z,2.20
2022-11-26T20:47:29.059Z,2.35
2022-11-26T20:50:33.876Z,2.35
2022-11-26T20:53:40.321Z,2.50
2022-11-26T20:56:45.305Z,2.55
2022-11-26T20:59:50.238Z,2.58
2022-11-26T21:02:55.267Z,2.75
2022-11-26T21:06:03.888Z,3.05
2022-11-26T21:09:13.180Z,2.38
2022-11-26T21:12:17.881Z,2.03
2022-11-26T21:15:23.125Z,2.22
2022-11-26T21:18:28.053Z,2.15
2022-11-26T21:21:33.251Z,2.38
2022-11-26T21:25:02.871Z,2.08
2022-11-26T21:28:08.754Z,2.53
2022-11-26T21:31:17.242Z,3.75
2022-11-26T21:34:22.288Z,3.30
2022-11-26T21:37:28.167Z,2.70
2022-11-26T21:40:33.582Z,3.20
2022-11-26T21:43:39.799Z,3.67
2022-11-26T21:46:44.324Z,3.67
2022-11-26T21:49:48.815Z,3.42
2022-11-26T21:52:53.325Z,3.15
2022-11-26T21:56:09.789Z,3.47
2022-11-26T21:59:15.801Z,3.88
2022-11-26T22:02:20.637Z,3.17
2022-11-26T22:05:25.072Z,2.45
2022-11-26T22:08:30.042Z,2.40
2022-11-26T22:11:38.596Z,3.85
2022-11-26T22:14:43.526Z,3.15
2022-11-26T22:17:48.213Z,2.67
2022-11-26T22:20:53.701Z,3.00
2022-11-26T22:24:00.320Z,3.50
2022-11-26T22:27:04.891Z,2.97
2022-11-26T22:30:10.110Z,2.90
2022-11-26T22:33:14.784Z,3.30
2022-11-26T22:36:19.248Z,2.70
2022-11-26T22:39:23.590Z,2.97
2022-11-26T22:42:28.061Z,2.67
2022-11-26T22:45:32.771Z,2.55
2022-11-26T22:48:37.876Z,2.50
2022-11-26T22:51:42.642Z,2.30
2022-11-26T22:54:47.448Z,2.50
2022-11-26T22:57:51.935Z,2.10
2022-11-26T23:01:07.661Z,2.20
2022-11-26T23:04:12.095Z,2.17
2022-11-26T23:07:16.662Z,2.08
2022-11-26T23:10:21.643Z,2.05
2022-11-26T23:13:26.197Z,2.40
2022-11-26T23:16:31.339Z,2.05
2022-11-26T23:19:36.093Z,2.08
2022-11-26T23:22:40.546Z,2.45
2022-11-26T23:25:44.686Z,2.05
2022-11-26T23:28:49.282Z,2.17
2022-11-26T23:31:53.991Z,2.53
2022-11-26T23:34:59.003Z,2.35
2022-11-26T23:38:03.425Z,2.25
2022-11-26T23:41:08.324Z,1.92
2022-11-26T23:44:12.734Z,2.10
2022-11-26T23:47:17.128Z,2.28
2022-11-26T23:50:21.507Z,1.77
2022-11-26T23:53:26.431Z,1.90
2022-11-26T23:56:33.744Z,1.90
2022-11-26T23:59:39.708Z,2.08
